sensor_id;sensor_type;location;lat;lon;timestamp;P1;durP1;ratioP1;P2;durP2;ratioP2
28266;SDS011;15525;45.568;5.448;2023-05-13T00:01:30;18.58;;;11.73;;
28266;SDS011;15525;45.568;5.448;2023-05-13T00:03:55;19.23;;;11.93;;
28266;SDS011;15525;45.568;5.448;2023-05-13T00:06:20;18.58;;;11.25;;
28266;SDS011;15525;45.568;5.448;2023-05-13T00:08:46;20.00;;;11.77;;
28266;SDS011;15525;45.568;5.448;2023-05-13T00:11:11;18.17;;;11.57;;
28266;SDS011;15525;45.568;5.448;2023-05-13T00:13:37;19.35;;;11.27;;
28266;SDS011;15525;45.568;5.448;2023-05-13T00:16:02;19.13;;;10.90;;
28266;SDS011;15525;45.568;5.448;2023-05-13T00:18:28;18.13;;;11.45;;
28266;SDS011;15525;45.568;5.448;2023-05-13T00:20:53;18.58;;;11.93;;
28266;SDS011;15525;45.568;5.448;2023-05-13T00:23:20;19.38;;;11.23;;
28266;SDS011;15525;45.568;5.448;2023-05-13T00:25:45;20.27;;;11.75;;
28266;SDS011;15525;45.568;5.448;2023-05-13T00:28:11;17.25;;;10.50;;
28266;SDS011;15525;45.568;5.448;2023-05-13T00:30:39;20.10;;;10.73;;
28266;SDS011;15525;45.568;5.448;2023-05-13T00:33:06;18.45;;;11.18;;
28266;SDS011;15525;45.568;5.448;2023-05-13T00:35:32;18.40;;;10.55;;
28266;SDS011;15525;45.568;5.448;2023-05-13T00:37:57;17.23;;;10.38;;
28266;SDS011;15525;45.568;5.448;2023-05-13T00:40:23;16.67;;;10.43;;
28266;SDS011;15525;45.568;5.448;2023-05-13T00:42:49;16.08;;;9.82;;
28266;SDS011;15525;45.568;5.448;2023-05-13T00:45:15;15.18;;;10.30;;
28266;SDS011;15525;45.568;5.448;2023-05-13T00:47:41;14.00;;;9.85;;
28266;SDS011;15525;45.568;5.448;2023-05-13T00:50:07;14.63;;;10.35;;
28266;SDS011;15525;45.568;5.448;2023-05-13T00:52:35;16.35;;;10.40;;
28266;SDS011;15525;45.568;5.448;2023-05-13T00:55:02;18.45;;;10.68;;
28266;SDS011;15525;45.568;5.448;2023-05-13T00:57:28;16.23;;;10.55;;
28266;SDS011;15525;45.568;5.448;2023-05-13T00:59:54;15.98;;;10.57;;
28266;SDS011;15525;45.568;5.448;2023-05-13T01:02:22;15.85;;;10.48;;
28266;SDS011;15525;45.568;5.448;2023-05-13T01:07:58;14.82;;;10.30;;
28266;SDS011;15525;45.568;5.448;2023-05-13T01:10:45;16.13;;;10.35;;
28266;SDS011;15525;45.568;5.448;2023-05-13T01:13:21;16.17;;;10.88;;
28266;SDS011;15525;45.568;5.448;2023-05-13T01:15:52;16.17;;;10.63;;
28266;SDS011;15525;45.568;5.448;2023-05-13T01:18:28;17.48;;;10.48;;
28266;SDS011;15525;45.568;5.448;2023-05-13T01:21:00;19.92;;;11.18;;
28266;SDS011;15525;45.568;5.448;2023-05-13T01:23:26;24.20;;;12.40;;
28266;SDS011;15525;45.568;5.448;2023-05-13T01:25:51;20.80;;;12.25;;
28266;SDS011;15525;45.568;5.448;2023-05-13T01:28:16;19.67;;;11.68;;
28266;SDS011;15525;45.568;5.448;2023-05-13T01:30:42;19.15;;;12.48;;
28266;SDS011;15525;45.568;5.448;2023-05-13T01:33:08;18.25;;;11.55;;
28266;SDS011;15525;45.568;5.448;2023-05-13T01:35:34;23.45;;;12.55;;
28266;SDS011;15525;45.568;5.448;2023-05-13T01:38:00;18.80;;;12.07;;
28266;SDS011;15525;45.568;5.448;2023-05-13T01:40:26;23.05;;;12.57;;
28266;SDS011;15525;45.568;5.448;2023-05-13T01:42:53;24.23;;;13.73;;
28266;SDS011;15525;45.568;5.448;2023-05-13T01:45:18;20.73;;;13.02;;
28266;SDS011;15525;45.568;5.448;2023-05-13T01:47:44;18.98;;;12.07;;
28266;SDS011;15525;45.568;5.448;2023-05-13T01:50:09;20.10;;;12.25;;
28266;SDS011;15525;45.568;5.448;2023-05-13T01:52:35;20.48;;;12.55;;
28266;SDS011;15525;45.568;5.448;2023-05-13T01:55:00;22.27;;;12.63;;
28266;SDS011;15525;45.568;5.448;2023-05-13T01:57:26;19.50;;;12.35;;
28266;SDS011;15525;45.568;5.448;2023-05-13T01:59:51;19.02;;;12.50;;
28266;SDS011;15525;45.568;5.448;2023-05-13T02:02:17;18.05;;;12.45;;
28266;SDS011;15525;45.568;5.448;2023-05-13T02:04:42;19.70;;;12.15;;
28266;SDS011;15525;45.568;5.448;2023-05-13T02:07:08;20.05;;;12.63;;
28266;SDS011;15525;45.568;5.448;2023-05-13T02:09:33;19.42;;;12.32;;
28266;SDS011;15525;45.568;5.448;2023-05-13T02:11:59;20.65;;;12.70;;
28266;SDS011;15525;45.568;5.448;2023-05-13T02:14:24;19.45;;;12.68;;
28266;SDS011;15525;45.568;5.448;2023-05-13T02:16:50;19.25;;;12.88;;
28266;SDS011;15525;45.568;5.448;2023-05-13T02:19:15;22.10;;;13.35;;
28266;SDS011;15525;45.568;5.448;2023-05-13T02:21:41;20.73;;;12.95;;
28266;SDS011;15525;45.568;5.448;2023-05-13T02:24:07;20.45;;;12.80;;
28266;SDS011;15525;45.568;5.448;2023-05-13T02:26:33;21.88;;;13.75;;
28266;SDS011;15525;45.568;5.448;2023-05-13T02:28:59;26.95;;;13.85;;
28266;SDS011;15525;45.568;5.448;2023-05-13T02:31:24;24.77;;;14.40;;
28266;SDS011;15525;45.568;5.448;2023-05-13T02:33:50;22.42;;;13.65;;
28266;SDS011;15525;45.568;5.448;2023-05-13T02:36:16;22.15;;;14.25;;
28266;SDS011;15525;45.568;5.448;2023-05-13T02:38:41;23.42;;;14.48;;
28266;SDS011;15525;45.568;5.448;2023-05-13T02:41:06;25.15;;;14.57;;
28266;SDS011;15525;45.568;5.448;2023-05-13T02:43:32;23.10;;;14.75;;
28266;SDS011;15525;45.568;5.448;2023-05-13T02:45:58;22.45;;;14.90;;
28266;SDS011;15525;45.568;5.448;2023-05-13T02:48:23;25.52;;;15.18;;
28266;SDS011;15525;45.568;5.448;2023-05-13T02:50:49;26.08;;;15.98;;
28266;SDS011;15525;45.568;5.448;2023-05-13T02:53:14;23.00;;;14.68;;
28266;SDS011;15525;45.568;5.448;2023-05-13T02:55:40;25.55;;;15.35;;
28266;SDS011;15525;45.568;5.448;2023-05-13T02:58:05;24.48;;;15.15;;
28266;SDS011;15525;45.568;5.448;2023-05-13T03:00:30;25.50;;;16.20;;
28266;SDS011;15525;45.568;5.448;2023-05-13T03:02:56;27.77;;;16.85;;
28266;SDS011;15525;45.568;5.448;2023-05-13T03:05:21;23.65;;;14.77;;
28266;SDS011;15525;45.568;5.448;2023-05-13T03:07:47;26.17;;;15.80;;
28266;SDS011;15525;45.568;5.448;2023-05-13T03:10:12;27.52;;;16.13;;
28266;SDS011;15525;45.568;5.448;2023-05-13T03:12:38;28.80;;;16.05;;
28266;SDS011;15525;45.568;5.448;2023-05-13T03:15:04;25.75;;;16.55;;
28266;SDS011;15525;45.568;5.448;2023-05-13T03:17:29;26.90;;;16.15;;
28266;SDS011;15525;45.568;5.448;2023-05-13T03:19:56;26.85;;;16.17;;
28266;SDS011;15525;45.568;5.448;2023-05-13T03:22:21;25.90;;;16.23;;
28266;SDS011;15525;45.568;5.448;2023-05-13T03:24:47;26.33;;;15.77;;
28266;SDS011;15525;45.568;5.448;2023-05-13T03:27:12;26.20;;;16.17;;
28266;SDS011;15525;45.568;5.448;2023-05-13T03:29:38;25.60;;;15.93;;
28266;SDS011;15525;45.568;5.448;2023-05-13T03:32:03;25.67;;;15.85;;
28266;SDS011;15525;45.568;5.448;2023-05-13T03:34:30;25.30;;;15.95;;
28266;SDS011;15525;45.568;5.448;2023-05-13T03:36:56;28.25;;;16.92;;
28266;SDS011;15525;45.568;5.448;2023-05-13T03:39:22;28.42;;;17.55;;
28266;SDS011;15525;45.568;5.448;2023-05-13T03:41:47;29.85;;;17.02;;
28266;SDS011;15525;45.568;5.448;2023-05-13T03:44:12;28.33;;;16.95;;
28266;SDS011;15525;45.568;5.448;2023-05-13T03:46:38;27.58;;;16.23;;
28266;SDS011;15525;45.568;5.448;2023-05-13T03:49:03;24.95;;;15.57;;
28266;SDS011;15525;45.568;5.448;2023-05-13T03:51:29;27.23;;;17.45;;
28266;SDS011;15525;45.568;5.448;2023-05-13T03:53:55;28.40;;;17.45;;
28266;SDS011;15525;45.568;5.448;2023-05-13T03:56:20;30.88;;;18.25;;
28266;SDS011;15525;45.568;5.448;2023-05-13T03:58:46;28.02;;;17.45;;
28266;SDS011;15525;45.568;5.448;2023-05-13T04:01:11;30.27;;;17.52;;
28266;SDS011;15525;45.568;5.448;2023-05-13T04:03:36;28.77;;;17.10;;
28266;SDS011;15525;45.568;5.448;2023-05-13T04:06:02;28.95;;;16.52;;
28266;SDS011;15525;45.568;5.448;2023-05-13T04:08:27;28.80;;;17.95;;
28266;SDS011;15525;45.568;5.448;2023-05-13T04:10:53;30.27;;;17.75;;
28266;SDS011;15525;45.568;5.448;2023-05-13T04:13:20;29.90;;;17.85;;
28266;SDS011;15525;45.568;5.448;2023-05-13T04:15:45;30.35;;;18.17;;
28266;SDS011;15525;45.568;5.448;2023-05-13T04:18:11;29.15;;;18.00;;
28266;SDS011;15525;45.568;5.448;2023-05-13T04:20:37;31.10;;;18.08;;
28266;SDS011;15525;45.568;5.448;2023-05-13T04:23:03;32.70;;;17.92;;
28266;SDS011;15525;45.568;5.448;2023-05-13T04:25:29;29.00;;;17.20;;
28266;SDS011;15525;45.568;5.448;2023-05-13T04:27:54;30.92;;;18.23;;
28266;SDS011;15525;45.568;5.448;2023-05-13T04:30:20;30.85;;;18.10;;
28266;SDS011;15525;45.568;5.448;2023-05-13T04:32:46;31.15;;;18.35;;
28266;SDS011;15525;45.568;5.448;2023-05-13T04:35:11;33.20;;;18.42;;
28266;SDS011;15525;45.568;5.448;2023-05-13T04:37:36;33.10;;;19.73;;
28266;SDS011;15525;45.568;5.448;2023-05-13T04:40:02;33.30;;;18.42;;
28266;SDS011;15525;45.568;5.448;2023-05-13T04:42:28;31.08;;;17.65;;
28266;SDS011;15525;45.568;5.448;2023-05-13T04:44:53;32.25;;;18.25;;
28266;SDS011;15525;45.568;5.448;2023-05-13T04:47:19;33.17;;;18.58;;
28266;SDS011;15525;45.568;5.448;2023-05-13T04:49:44;34.10;;;19.20;;
28266;SDS011;15525;45.568;5.448;2023-05-13T04:52:10;32.15;;;18.48;;
28266;SDS011;15525;45.568;5.448;2023-05-13T04:54:37;33.42;;;18.88;;
28266;SDS011;15525;45.568;5.448;2023-05-13T04:57:03;33.25;;;18.85;;
28266;SDS011;15525;45.568;5.448;2023-05-13T04:59:29;31.35;;;18.30;;
28266;SDS011;15525;45.568;5.448;2023-05-13T05:01:55;31.95;;;19.45;;
28266;SDS011;15525;45.568;5.448;2023-05-13T05:04:21;33.58;;;18.50;;
28266;SDS011;15525;45.568;5.448;2023-05-13T05:06:46;31.52;;;18.50;;
28266;SDS011;15525;45.568;5.448;2023-05-13T05:09:12;34.75;;;18.88;;
28266;SDS011;15525;45.568;5.448;2023-05-13T05:11:38;34.45;;;19.13;;
28266;SDS011;15525;45.568;5.448;2023-05-13T05:14:03;30.95;;;18.73;;
28266;SDS011;15525;45.568;5.448;2023-05-13T05:16:28;32.47;;;18.67;;
28266;SDS011;15525;45.568;5.448;2023-05-13T05:18:54;29.30;;;17.35;;
28266;SDS011;15525;45.568;5.448;2023-05-13T05:21:19;28.33;;;17.60;;
28266;SDS011;15525;45.568;5.448;2023-05-13T05:23:45;28.25;;;16.42;;
28266;SDS011;15525;45.568;5.448;2023-05-13T05:26:10;28.38;;;16.42;;
28266;SDS011;15525;45.568;5.448;2023-05-13T05:28:36;27.23;;;16.55;;
28266;SDS011;15525;45.568;5.448;2023-05-13T05:31:03;29.23;;;16.50;;
28266;SDS011;15525;45.568;5.448;2023-05-13T05:33:29;29.05;;;16.00;;
28266;SDS011;15525;45.568;5.448;2023-05-13T05:35:55;26.73;;;16.00;;
28266;SDS011;15525;45.568;5.448;2023-05-13T05:38:20;28.48;;;16.15;;
28266;SDS011;15525;45.568;5.448;2023-05-13T05:40:49;27.75;;;16.27;;
28266;SDS011;15525;45.568;5.448;2023-05-13T05:43:14;27.08;;;16.30;;
28266;SDS011;15525;45.568;5.448;2023-05-13T05:45:40;27.13;;;15.98;;
28266;SDS011;15525;45.568;5.448;2023-05-13T05:48:06;26.52;;;15.57;;
28266;SDS011;15525;45.568;5.448;2023-05-13T05:50:32;22.55;;;14.77;;
28266;SDS011;15525;45.568;5.448;2023-05-13T05:52:58;27.05;;;16.05;;
28266;SDS011;15525;45.568;5.448;2023-05-13T05:55:24;24.42;;;14.57;;
28266;SDS011;15525;45.568;5.448;2023-05-13T05:57:52;22.30;;;14.55;;
28266;SDS011;15525;45.568;5.448;2023-05-13T06:00:17;22.92;;;14.50;;
28266;SDS011;15525;45.568;5.448;2023-05-13T06:02:43;22.35;;;14.20;;
28266;SDS011;15525;45.568;5.448;2023-05-13T06:05:08;24.23;;;14.57;;
28266;SDS011;15525;45.568;5.448;2023-05-13T06:07:34;22.50;;;13.82;;
28266;SDS011;15525;45.568;5.448;2023-05-13T06:10:00;22.20;;;13.93;;
28266;SDS011;15525;45.568;5.448;2023-05-13T06:12:25;22.02;;;14.23;;
28266;SDS011;15525;45.568;5.448;2023-05-13T06:14:50;22.63;;;13.20;;
28266;SDS011;15525;45.568;5.448;2023-05-13T06:17:16;21.67;;;14.23;;
28266;SDS011;15525;45.568;5.448;2023-05-13T06:19:41;23.02;;;13.75;;
28266;SDS011;15525;45.568;5.448;2023-05-13T06:22:07;25.88;;;14.52;;
28266;SDS011;15525;45.568;5.448;2023-05-13T06:24:33;24.15;;;13.65;;
28266;SDS011;15525;45.568;5.448;2023-05-13T06:26:59;22.23;;;14.15;;
28266;SDS011;15525;45.568;5.448;2023-05-13T06:29:25;23.52;;;14.40;;
28266;SDS011;15525;45.568;5.448;2023-05-13T06:31:52;22.25;;;14.20;;
28266;SDS011;15525;45.568;5.448;2023-05-13T06:34:17;21.48;;;13.60;;
28266;SDS011;15525;45.568;5.448;2023-05-13T06:36:43;23.33;;;13.80;;
28266;SDS011;15525;45.568;5.448;2023-05-13T06:39:08;21.65;;;14.60;;
28266;SDS011;15525;45.568;5.448;2023-05-13T06:41:35;22.05;;;14.35;;
28266;SDS011;15525;45.568;5.448;2023-05-13T06:44:01;19.75;;;13.20;;
28266;SDS011;15525;45.568;5.448;2023-05-13T06:46:27;22.88;;;14.43;;
28266;SDS011;15525;45.568;5.448;2023-05-13T06:48:52;23.55;;;14.43;;
28266;SDS011;15525;45.568;5.448;2023-05-13T06:51:19;22.40;;;13.85;;
28266;SDS011;15525;45.568;5.448;2023-05-13T06:53:44;19.40;;;13.20;;
28266;SDS011;15525;45.568;5.448;2023-05-13T06:56:10;20.13;;;13.55;;
28266;SDS011;15525;45.568;5.448;2023-05-13T06:58:35;21.40;;;13.32;;
28266;SDS011;15525;45.568;5.448;2023-05-13T07:01:01;21.05;;;13.35;;
28266;SDS011;15525;45.568;5.448;2023-05-13T07:03:26;18.20;;;12.85;;
28266;SDS011;15525;45.568;5.448;2023-05-13T07:05:52;17.38;;;11.88;;
28266;SDS011;15525;45.568;5.448;2023-05-13T07:08:17;18.05;;;11.55;;
28266;SDS011;15525;45.568;5.448;2023-05-13T07:10:42;17.67;;;12.18;;
28266;SDS011;15525;45.568;5.448;2023-05-13T07:13:09;17.45;;;12.13;;
28266;SDS011;15525;45.568;5.448;2023-05-13T07:15:35;17.35;;;11.70;;
28266;SDS011;15525;45.568;5.448;2023-05-13T07:18:01;18.50;;;11.27;;
28266;SDS011;15525;45.568;5.448;2023-05-13T07:20:26;18.25;;;11.18;;
28266;SDS011;15525;45.568;5.448;2023-05-13T07:22:51;19.23;;;12.00;;
28266;SDS011;15525;45.568;5.448;2023-05-13T07:25:17;15.88;;;10.93;;
28266;SDS011;15525;45.568;5.448;2023-05-13T07:27:43;16.92;;;10.65;;
28266;SDS011;15525;45.568;5.448;2023-05-13T07:30:09;16.08;;;10.68;;
28266;SDS011;15525;45.568;5.448;2023-05-13T07:32:36;16.02;;;10.57;;
28266;SDS011;15525;45.568;5.448;2023-05-13T07:35:02;15.38;;;10.38;;
28266;SDS011;15525;45.568;5.448;2023-05-13T07:37:28;17.00;;;11.05;;
28266;SDS011;15525;45.568;5.448;2023-05-13T07:39:53;15.18;;;10.27;;
28266;SDS011;15525;45.568;5.448;2023-05-13T07:42:19;18.13;;;10.77;;
28266;SDS011;15525;45.568;5.448;2023-05-13T07:44:45;16.40;;;11.73;;
28266;SDS011;15525;45.568;5.448;2023-05-13T07:47:10;17.00;;;11.27;;
28266;SDS011;15525;45.568;5.448;2023-05-13T07:49:36;18.30;;;10.95;;
28266;SDS011;15525;45.568;5.448;2023-05-13T07:52:02;20.15;;;12.38;;
28266;SDS011;15525;45.568;5.448;2023-05-13T07:54:27;18.40;;;12.02;;
28266;SDS011;15525;45.568;5.448;2023-05-13T07:56:52;18.77;;;12.00;;
28266;SDS011;15525;45.568;5.448;2023-05-13T07:59:18;20.85;;;13.48;;
28266;SDS011;15525;45.568;5.448;2023-05-13T08:01:43;21.33;;;13.10;;
28266;SDS011;15525;45.568;5.448;2023-05-13T08:04:09;23.05;;;13.75;;
28266;SDS011;15525;45.568;5.448;2023-05-13T08:06:34;21.00;;;12.88;;
28266;SDS011;15525;45.568;5.448;2023-05-13T08:09:00;18.25;;;12.40;;
28266;SDS011;15525;45.568;5.448;2023-05-13T08:11:26;18.38;;;12.35;;
28266;SDS011;15525;45.568;5.448;2023-05-13T08:13:52;18.50;;;12.18;;
28266;SDS011;15525;45.568;5.448;2023-05-13T08:16:18;19.05;;;12.75;;
28266;SDS011;15525;45.568;5.448;2023-05-13T08:18:43;19.92;;;12.77;;
28266;SDS011;15525;45.568;5.448;2023-05-13T08:21:09;19.38;;;12.38;;
28266;SDS011;15525;45.568;5.448;2023-05-13T08:23:35;19.83;;;12.43;;
28266;SDS011;15525;45.568;5.448;2023-05-13T08:26:01;21.38;;;13.52;;
28266;SDS011;15525;45.568;5.448;2023-05-13T08:28:27;20.65;;;13.07;;
28266;SDS011;15525;45.568;5.448;2023-05-13T08:30:53;18.08;;;11.65;;
28266;SDS011;15525;45.568;5.448;2023-05-13T08:33:19;19.77;;;12.80;;
28266;SDS011;15525;45.568;5.448;2023-05-13T08:35:45;21.38;;;13.27;;
28266;SDS011;15525;45.568;5.448;2023-05-13T08:38:11;19.98;;;12.15;;
28266;SDS011;15525;45.568;5.448;2023-05-13T08:40:36;17.17;;;11.68;;
28266;SDS011;15525;45.568;5.448;2023-05-13T08:43:02;18.20;;;11.48;;
28266;SDS011;15525;45.568;5.448;2023-05-13T08:45:29;18.08;;;11.35;;
28266;SDS011;15525;45.568;5.448;2023-05-13T08:47:57;17.85;;;11.88;;
28266;SDS011;15525;45.568;5.448;2023-05-13T08:50:25;17.75;;;12.30;;
28266;SDS011;15525;45.568;5.448;2023-05-13T08:52:52;21.77;;;13.40;;
28266;SDS011;15525;45.568;5.448;2023-05-13T08:55:18;24.67;;;14.98;;
28266;SDS011;15525;45.568;5.448;2023-05-13T08:57:44;26.50;;;14.90;;
28266;SDS011;15525;45.568;5.448;2023-05-13T09:00:10;26.02;;;15.35;;
28266;SDS011;15525;45.568;5.448;2023-05-13T09:02:36;26.45;;;15.40;;
28266;SDS011;15525;45.568;5.448;2023-05-13T09:05:03;28.25;;;15.38;;
28266;SDS011;15525;45.568;5.448;2023-05-13T09:07:33;31.45;;;16.58;;
28266;SDS011;15525;45.568;5.448;2023-05-13T09:09:59;27.33;;;15.98;;
28266;SDS011;15525;45.568;5.448;2023-05-13T09:12:43;26.27;;;15.65;;
28266;SDS011;15525;45.568;5.448;2023-05-13T09:15:15;26.85;;;16.17;;
28266;SDS011;15525;45.568;5.448;2023-05-13T09:17:43;26.88;;;16.42;;
28266;SDS011;15525;45.568;5.448;2023-05-13T09:20:10;32.33;;;17.73;;
28266;SDS011;15525;45.568;5.448;2023-05-13T09:22:48;27.58;;;16.58;;
28266;SDS011;15525;45.568;5.448;2023-05-13T09:25:18;28.70;;;17.70;;
28266;SDS011;15525;45.568;5.448;2023-05-13T09:27:45;27.75;;;16.58;;
28266;SDS011;15525;45.568;5.448;2023-05-13T09:30:12;26.48;;;15.60;;
28266;SDS011;15525;45.568;5.448;2023-05-13T09:32:39;29.30;;;16.33;;
28266;SDS011;15525;45.568;5.448;2023-05-13T09:37:37;26.83;;;16.05;;
28266;SDS011;15525;45.568;5.448;2023-05-13T09:40:03;23.98;;;15.45;;
28266;SDS011;15525;45.568;5.448;2023-05-13T09:42:29;25.20;;;15.32;;
28266;SDS011;15525;45.568;5.448;2023-05-13T09:44:57;26.73;;;16.27;;
28266;SDS011;15525;45.568;5.448;2023-05-13T09:47:29;23.35;;;14.95;;
28266;SDS011;15525;45.568;5.448;2023-05-13T09:49:55;28.42;;;16.20;;
28266;SDS011;15525;45.568;5.448;2023-05-13T09:52:21;26.35;;;16.17;;
28266;SDS011;15525;45.568;5.448;2023-05-13T09:54:47;27.85;;;16.13;;
28266;SDS011;15525;45.568;5.448;2023-05-13T09:57:12;21.90;;;13.43;;
28266;SDS011;15525;45.568;5.448;2023-05-13T09:59:38;22.92;;;14.48;;
28266;SDS011;15525;45.568;5.448;2023-05-13T10:02:05;21.50;;;13.55;;
28266;SDS011;15525;45.568;5.448;2023-05-13T10:04:32;23.00;;;14.00;;
28266;SDS011;15525;45.568;5.448;2023-05-13T10:06:58;24.00;;;13.80;;
28266;SDS011;15525;45.568;5.448;2023-05-13T10:09:27;21.27;;;13.85;;
28266;SDS011;15525;45.568;5.448;2023-05-13T10:11:58;21.40;;;13.00;;
28266;SDS011;15525;45.568;5.448;2023-05-13T10:14:24;21.50;;;13.77;;
28266;SDS011;15525;45.568;5.448;2023-05-13T10:16:50;20.40;;;13.38;;
28266;SDS011;15525;45.568;5.448;2023-05-13T10:19:16;19.65;;;12.18;;
28266;SDS011;15525;45.568;5.448;2023-05-13T10:21:41;20.08;;;12.40;;
28266;SDS011;15525;45.568;5.448;2023-05-13T10:24:08;17.92;;;12.27;;
28266;SDS011;15525;45.568;5.448;2023-05-13T10:26:33;18.63;;;13.07;;
28266;SDS011;15525;45.568;5.448;2023-05-13T10:28:59;18.00;;;12.27;;
28266;SDS011;15525;45.568;5.448;2023-05-13T10:31:26;21.27;;;11.95;;
28266;SDS011;15525;45.568;5.448;2023-05-13T10:33:52;17.83;;;12.05;;
28266;SDS011;15525;45.568;5.448;2023-05-13T10:39:41;21.40;;;12.75;;
28266;SDS011;15525;45.568;5.448;2023-05-13T10:45:07;17.48;;;11.68;;
28266;SDS011;15525;45.568;5.448;2023-05-13T10:47:33;18.10;;;11.77;;
28266;SDS011;15525;45.568;5.448;2023-05-13T10:50:01;18.55;;;11.65;;
28266;SDS011;15525;45.568;5.448;2023-05-13T10:55:31;19.52;;;12.85;;
28266;SDS011;15525;45.568;5.448;2023-05-13T11:00:40;17.33;;;12.10;;
28266;SDS011;15525;45.568;5.448;2023-05-13T11:05:43;18.17;;;12.48;;
28266;SDS011;15525;45.568;5.448;2023-05-13T11:08:11;16.73;;;11.65;;
28266;SDS011;15525;45.568;5.448;2023-05-13T11:10:56;16.42;;;11.82;;
28266;SDS011;15525;45.568;5.448;2023-05-13T11:13:21;16.08;;;11.77;;
28266;SDS011;15525;45.568;5.448;2023-05-13T11:15:49;16.88;;;12.05;;
28266;SDS011;15525;45.568;5.448;2023-05-13T11:18:19;15.50;;;11.68;;
28266;SDS011;15525;45.568;5.448;2023-05-13T11:20:52;15.20;;;10.95;;
28266;SDS011;15525;45.568;5.448;2023-05-13T11:23:18;15.27;;;10.95;;
28266;SDS011;15525;45.568;5.448;2023-05-13T11:25:45;15.90;;;11.30;;
28266;SDS011;15525;45.568;5.448;2023-05-13T11:28:14;13.05;;;10.10;;
28266;SDS011;15525;45.568;5.448;2023-05-13T11:30:51;15.18;;;11.13;;
28266;SDS011;15525;45.568;5.448;2023-05-13T11:33:19;14.70;;;11.50;;
28266;SDS011;15525;45.568;5.448;2023-05-13T11:35:52;12.95;;;9.95;;
28266;SDS011;15525;45.568;5.448;2023-05-13T11:38:22;13.27;;;10.07;;
28266;SDS011;15525;45.568;5.448;2023-05-13T11:40:54;12.77;;;9.75;;
28266;SDS011;15525;45.568;5.448;2023-05-13T11:43:20;11.57;;;9.35;;
28266;SDS011;15525;45.568;5.448;2023-05-13T11:45:46;15.48;;;10.35;;
28266;SDS011;15525;45.568;5.448;2023-05-13T11:50:46;12.73;;;9.13;;
28266;SDS011;15525;45.568;5.448;2023-05-13T11:53:11;12.93;;;9.98;;
28266;SDS011;15525;45.568;5.448;2023-05-13T11:55:43;14.48;;;9.88;;
28266;SDS011;15525;45.568;5.448;2023-05-13T11:58:11;13.32;;;9.95;;
28266;SDS011;15525;45.568;5.448;2023-05-13T12:00:38;12.15;;;10.10;;
28266;SDS011;15525;45.568;5.448;2023-05-13T12:03:08;11.82;;;9.73;;
28266;SDS011;15525;45.568;5.448;2023-05-13T12:05:35;11.63;;;9.18;;
28266;SDS011;15525;45.568;5.448;2023-05-13T12:08:01;14.05;;;9.63;;
28266;SDS011;15525;45.568;5.448;2023-05-13T12:10:27;10.43;;;8.50;;
28266;SDS011;15525;45.568;5.448;2023-05-13T12:12:52;10.38;;;8.32;;
28266;SDS011;15525;45.568;5.448;2023-05-13T12:15:18;10.45;;;8.25;;
28266;SDS011;15525;45.568;5.448;2023-05-13T12:17:46;10.13;;;8.13;;
28266;SDS011;15525;45.568;5.448;2023-05-13T12:28:16;9.00;;;7.68;;
28266;SDS011;15525;45.568;5.448;2023-05-13T12:30:53;10.00;;;8.05;;
28266;SDS011;15525;45.568;5.448;2023-05-13T12:33:21;9.77;;;7.97;;
28266;SDS011;15525;45.568;5.448;2023-05-13T12:35:48;8.40;;;7.38;;
28266;SDS011;15525;45.568;5.448;2023-05-13T12:38:19;11.25;;;7.45;;
28266;SDS011;15525;45.568;5.448;2023-05-13T12:40:46;10.40;;;7.55;;
28266;SDS011;15525;45.568;5.448;2023-05-13T12:43:13;8.68;;;7.10;;
28266;SDS011;15525;45.568;5.448;2023-05-13T12:45:41;8.75;;;6.85;;
28266;SDS011;15525;45.568;5.448;2023-05-13T12:48:07;9.25;;;7.25;;
28266;SDS011;15525;45.568;5.448;2023-05-13T12:50:32;8.55;;;7.20;;
28266;SDS011;15525;45.568;5.448;2023-05-13T12:52:58;12.05;;;9.25;;
28266;SDS011;15525;45.568;5.448;2023-05-13T12:55:24;9.80;;;7.88;;
28266;SDS011;15525;45.568;5.448;2023-05-13T12:58:02;8.85;;;7.63;;
28266;SDS011;15525;45.568;5.448;2023-05-13T13:00:28;8.55;;;7.10;;
28266;SDS011;15525;45.568;5.448;2023-05-13T13:02:55;9.60;;;7.18;;
28266;SDS011;15525;45.568;5.448;2023-05-13T13:05:22;9.90;;;7.30;;
28266;SDS011;15525;45.568;5.448;2023-05-13T13:07:48;8.10;;;6.70;;
28266;SDS011;15525;45.568;5.448;2023-05-13T13:10:14;7.80;;;6.38;;
28266;SDS011;15525;45.568;5.448;2023-05-13T13:12:40;8.48;;;5.95;;
28266;SDS011;15525;45.568;5.448;2023-05-13T13:15:06;9.45;;;7.43;;
28266;SDS011;15525;45.568;5.448;2023-05-13T13:17:32;9.07;;;7.45;;
28266;SDS011;15525;45.568;5.448;2023-05-13T13:19:58;9.63;;;7.18;;
28266;SDS011;15525;45.568;5.448;2023-05-13T13:22:24;8.23;;;6.60;;
28266;SDS011;15525;45.568;5.448;2023-05-13T13:24:50;7.53;;;6.72;;
28266;SDS011;15525;45.568;5.448;2023-05-13T13:27:16;7.07;;;6.05;;
28266;SDS011;15525;45.568;5.448;2023-05-13T13:29:42;8.02;;;6.68;;
28266;SDS011;15525;45.568;5.448;2023-05-13T13:32:07;8.38;;;6.75;;
28266;SDS011;15525;45.568;5.448;2023-05-13T13:34:32;14.05;;;7.82;;
28266;SDS011;15525;45.568;5.448;2023-05-13T13:36:58;9.80;;;6.85;;
28266;SDS011;15525;45.568;5.448;2023-05-13T13:39:23;7.53;;;6.72;;
28266;SDS011;15525;45.568;5.448;2023-05-13T13:41:49;8.68;;;6.28;;
28266;SDS011;15525;45.568;5.448;2023-05-13T13:44:14;9.40;;;7.60;;
28266;SDS011;15525;45.568;5.448;2023-05-13T13:46:40;8.48;;;6.57;;
28266;SDS011;15525;45.568;5.448;2023-05-13T13:49:05;13.70;;;8.10;;
28266;SDS011;15525;45.568;5.448;2023-05-13T13:51:30;10.98;;;7.30;;
28266;SDS011;15525;45.568;5.448;2023-05-13T13:53:56;8.23;;;6.50;;
28266;SDS011;15525;45.568;5.448;2023-05-13T13:56:27;8.55;;;6.18;;
28266;SDS011;15525;45.568;5.448;2023-05-13T13:58:52;8.40;;;6.20;;
28266;SDS011;15525;45.568;5.448;2023-05-13T14:01:17;7.90;;;6.18;;
28266;SDS011;15525;45.568;5.448;2023-05-13T14:03:43;8.38;;;6.82;;
28266;SDS011;15525;45.568;5.448;2023-05-13T14:06:08;7.20;;;5.93;;
28266;SDS011;15525;45.568;5.448;2023-05-13T14:08:34;8.55;;;5.25;;
28266;SDS011;15525;45.568;5.448;2023-05-13T14:11:00;6.25;;;4.97;;
28266;SDS011;15525;45.568;5.448;2023-05-13T14:13:26;7.22;;;5.45;;
28266;SDS011;15525;45.568;5.448;2023-05-13T14:15:51;6.75;;;5.55;;
28266;SDS011;15525;45.568;5.448;2023-05-13T14:18:17;5.63;;;4.88;;
28266;SDS011;15525;45.568;5.448;2023-05-13T14:20:42;5.32;;;4.35;;
28266;SDS011;15525;45.568;5.448;2023-05-13T14:23:08;5.22;;;3.90;;
28266;SDS011;15525;45.568;5.448;2023-05-13T14:25:33;5.13;;;4.28;;
28266;SDS011;15525;45.568;5.448;2023-05-13T14:27:59;5.57;;;4.15;;
28266;SDS011;15525;45.568;5.448;2023-05-13T14:30:24;7.93;;;3.75;;
28266;SDS011;15525;45.568;5.448;2023-05-13T14:32:51;4.90;;;4.03;;
28266;SDS011;15525;45.568;5.448;2023-05-13T14:35:16;5.97;;;3.90;;
28266;SDS011;15525;45.568;5.448;2023-05-13T14:37:42;4.65;;;3.92;;
28266;SDS011;15525;45.568;5.448;2023-05-13T14:40:08;6.70;;;3.97;;
28266;SDS011;15525;45.568;5.448;2023-05-13T14:42:34;5.25;;;3.80;;
28266;SDS011;15525;45.568;5.448;2023-05-13T14:44:59;5.95;;;3.75;;
28266;SDS011;15525;45.568;5.448;2023-05-13T14:47:25;4.93;;;4.03;;
28266;SDS011;15525;45.568;5.448;2023-05-13T14:49:50;4.55;;;3.75;;
28266;SDS011;15525;45.568;5.448;2023-05-13T14:52:16;6.75;;;4.40;;